• Join FlightAware (Why Join?)
  • Login
  • US Flag 
10:34PM EDT


 

Airport Tracker/Info


-or-


 

Live Flight TrackerFlight Track Log ✈ AFL150 ✈ 15-Apr-2014 ✈ UUEE / SVO - MUHA / HAV

Flight Track Log - Related Links

Times and Time Zones

All times are in EDT time to prevent confusion due to time zone crossing. See the AFL150 flight status page for this flight to view local times or setup timezone preferences in your user account.

Time Position Orientation Groundspeed Altitude Reporting Facility
EDT Latitude Longitude Course Direction KTS MPH feet Rate Location/Type
06:32AM 56.1098 36.9198 307° West  Level Estimated
06:33AM 56.1649 36.7240 297° West  Level FlightAware Approximate
06:34AM 56.2197 36.5275 297° West  Level FlightAware Approximate
06:35AM 56.2742 36.3305 297° West  Level FlightAware Approximate
06:36AM 56.3283 36.1330 296° West  Level FlightAware Approximate
06:37AM 56.3821 35.9348 296° West  Level FlightAware Approximate
06:38AM 56.4356 35.7362 296° West  Level FlightAware Approximate
06:39AM 56.4888 35.5369 296° West  Level FlightAware Approximate
06:40AM 56.5417 35.3371 296° West  Level FlightAware Approximate
06:41AM 56.5943 35.1368 296° West  Level FlightAware Approximate
06:42AM 56.6465 34.9359 295° West  Level FlightAware Approximate
06:43AM 56.6984 34.7344 295° West  Level FlightAware Approximate
06:44AM 56.7500 34.5324 295° West  Level FlightAware Approximate
06:45AM 56.8012 34.3298 295° West  Level FlightAware Approximate
06:46AM 56.8521 34.1267 295° West  Level FlightAware Approximate
06:47AM 56.9027 33.9230 295° West  Level FlightAware Approximate
06:48AM 56.9515 33.7164 293° West  Level FlightAware Approximate
06:49AM 56.9989 33.5097 293° West  Level FlightAware Approximate
06:50AM 57.0460 33.3025 293° West  Level FlightAware Approximate
06:51AM 57.0928 33.0947 293° West  Level FlightAware Approximate
06:52AM 57.1393 32.8864 292° West  Level FlightAware Approximate
06:53AM 57.1853 32.6776 292° West  Level FlightAware Approximate
06:54AM 57.2311 32.4682 292° West  Level FlightAware Approximate
06:55AM 57.2765 32.2584 292° West  Level FlightAware Approximate
06:56AM 57.3215 32.0480 292° West  Level FlightAware Approximate
06:57AM 57.3662 31.8371 292° West  Level FlightAware Approximate
06:58AM 57.4105 31.6257 291° West  Level FlightAware Approximate
06:58AM 56.4937 31.8826 278° West 457 526 34,000  Level FlightAware ADS-B (EVDA / DGP)
06:59AM 56.5142 31.6138 278° West 456 525 34,000  Level FlightAware ADS-B (EVDA / DGP)
07:00AM 56.5310 31.3862 277° West 456 525 34,000  Level FlightAware ADS-B (EVDA / DGP)
07:01AM 56.5470 31.1650 277° West 456 525 34,000  Level FlightAware ADS-B (EVDA / DGP)
07:02AM 56.5649 30.9187 278° West 455 524 34,000  Level FlightAware ADS-B (EVDA / DGP)
07:03AM 56.5831 30.6717 277° West 456 525 34,000  Level FlightAware ADS-B (EVDA / DGP)
07:04AM 56.5989 30.4493 277° West 456 525 34,000  Level FlightAware ADS-B (EVDA / DGP)
07:05AM 56.6148 30.2180 277° West 458 527 34,000  Level FlightAware ADS-B (EVDA / DGP)
07:06AM 56.6307 29.9848 277° West 459 528 34,000  Level FlightAware ADS-B (EVDA / DGP)
07:07AM 56.6453 29.7619 277° West 461 531 34,000  Level FlightAware ADS-B (EVDA / DGP)
07:08AM 56.6610 29.5168 277° West 461 531 34,000  Level FlightAware ADS-B (EVDA / DGP)
07:09AM 56.6762 29.2701 276° West 462 532 34,000  Level FlightAware ADS-B (EVDA / DGP)
07:10AM 56.6895 29.0486 276° West 465 535 34,000  Level FlightAware ADS-B (EVDA / DGP)
07:11AM 56.7043 28.7945 276° West 466 536 34,000  Level FlightAware ADS-B (EVDA / DGP)
07:12AM 56.7164 28.5783 276° West 468 539 34,000  Level FlightAware ADS-B (EVDA / DGP)
07:14AM 56.7305 28.3171 276° West 468 539 34,000  Level FlightAware ADS-B (EVDA / DGP)
07:15AM 56.7436 28.0631 275° West 472 543 34,000  Level FlightAware ADS-B (EVDA / DGP)
07:16AM 56.7567 27.8067 276° West 473 544 34,000  Level FlightAware ADS-B (EVDA / DGP)
07:17AM 56.7593 27.5813 268° West 471 542 34,000  Level FlightAware ADS-B (EVDA / DGP)
07:18AM 56.7545 27.3300 268° West 470 541 34,000  Level FlightAware ADS-B (EVDA / DGP)
07:19AM 56.7493 27.1019 268° West 469 540 34,000  Level FlightAware ADS-B (EVDA / DGP)
07:20AM 56.7433 26.8612 267° West 469 540 34,000  Level FlightAware ADS-B (EVDA / DGP)
07:21AM 56.7367 26.6058 267° West 468 539 34,000  Level FlightAware ADS-B (EVDA / DGP)
07:22AM 56.7297 26.3521 267° West 470 541 34,000  Level FlightAware ADS-B (EVDA / DGP)
07:23AM 56.7225 26.1118 267° West 472 543 34,000  Level FlightAware ADS-B (EVDA / DGP)
07:24AM 56.7144 25.8588 267° West 472 543 34,000  Level FlightAware ADS-B (EVDA / DGP)
07:25AM 56.7065 25.6327 266° West 473 544 34,000  Level FlightAware ADS-B (EVDA / DGP)
07:26AM 56.6974 25.3746 266° West 475 547 34,000  Level FlightAware ADS-B (EVDA / DGP)
07:27AM 56.6888 25.1485 266° West 478 550 34,000  Level FlightAware ADS-B (EVDA / DGP)
07:28AM 56.6785 24.8873 266° West 479 551 34,000  Level FlightAware ADS-B (EVDA / DGP)
07:29AM 56.6684 24.6447 266° West 479 551 34,000  Level FlightAware ADS-B (EVDA / DGP)
07:30AM 56.6576 24.4015 265° West 479 551 34,000  Level FlightAware ADS-B (EVDA / DGP)
07:31AM 56.6466 24.1646 265° West 476 548 34,000  Level FlightAware ADS-B (EVDA / DGP)
07:32AM 56.6349 23.9174 265° West 475 547 34,000  Level FlightAware ADS-B (EVDA / DGP)
07:33AM 56.6230 23.6772 265° West 476 548 34,000  Level FlightAware ADS-B (EVDA / DGP)
07:34AM 56.6098 23.4229 265° West 477 549 34,000  Level FlightAware ADS-B (EVDA / DGP)
07:35AM 56.5964 23.1751 264° West 478 550 34,000  Level FlightAware ADS-B (EVDA / DGP)
07:36AM 56.5821 22.9191 264° West 476 548 34,000  Level FlightAware ADS-B (EVDA / DGP)
07:37AM 56.5675 22.6678 264° West 476 548 34,000  Level FlightAware ADS-B (EVDA / DGP)
07:38AM 56.5538 22.4398 264° West 474 545 34,000  Level FlightAware ADS-B (EVDA / DGP)
07:39AM 56.5391 22.2018 264° West 474 545 34,000  Level FlightAware ADS-B (EVDA / DGP)
07:40AM 56.5243 21.9698 263° West 473 544 34,000  Level FlightAware ADS-B (EVDA / DGP)
07:41AM 56.5086 21.7321 263° West 474 545 34,000  Level FlightAware ADS-B (EVDA / DGP)
07:42AM 56.4915 21.4789 263° West 474 545 34,000  Level FlightAware ADS-B (EVDA / DGP)
07:43AM 56.4735 21.2209 263° West 475 547 34,000  Level FlightAware ADS-B (EVDA / DGP)
07:45AM 56.4587 21.0156 263° West 476 548 34,000  Level FlightAware ADS-B (EVDA / DGP)
08:00AM 56.4881 17.2310 271° West 474 545 34,000  Level FlightAware ADS-B (ESMN)
08:01AM 56.4892 17.1401 271° West 473 544 34,000  Level FlightAware ADS-B (ESMN)
08:01AM 56.4918 16.9484 271° West 473 544 34,000  Level FlightAware ADS-B (ESMN)
08:02AM 56.4930 16.8432 271° West 473 544 34,000  Level FlightAware ADS-B (ESMN)
08:04AM 56.4967 16.4354 271° West 473 544 34,000  Level FlightAware ADS-B (ESMN)
08:04AM 56.4977 16.3058 271° West 473 544 34,000  Level FlightAware ADS-B (ESMN)
08:05AM 56.4985 16.1711 271° West 473 544 34,000  Level FlightAware ADS-B (ESMN)
08:05AM 56.4990 16.0549 270° West 473 544 34,000  Level FlightAware ADS-B (ESMN)
08:06AM 56.4996 15.9294 270° West 472 543 34,000  Level FlightAware ADS-B (ESMN)
08:06AM 56.4999 15.8068 270° West 472 543 34,000  Level FlightAware ADS-B (ESMN)
08:07AM 56.5003 15.6734 270° West 471 542 34,000  Level FlightAware ADS-B (ESMN)
08:08AM 56.5004 15.4990 270° West 471 542 34,000  Level FlightAware ADS-B (ESMN)
08:08AM 56.5004 15.3732 270° West 472 543 34,000  Level FlightAware ADS-B (ESMN)
08:09AM 56.5003 15.2581 270° West 472 543 34,000  Level FlightAware ADS-B (ESMN)
08:09AM 56.4998 15.0792 270° West 473 544 34,000  Level FlightAware ADS-B (ESMN)
08:10AM 56.4993 14.9521 270° West 473 544 34,000  Level FlightAware ADS-B (ESMN)
08:11AM 56.4984 14.7685 269° West 473 544 34,000  Level FlightAware ADS-B (ESMN)
08:11AM 56.4975 14.6474 269° West 474 545 34,000  Level FlightAware ADS-B (ESMN)
08:12AM 56.4967 14.5299 269° West 476 548 34,000  Level FlightAware ADS-B (ESMN)
08:13AM 56.4950 14.3190 269° West 476 548 34,000  Level FlightAware ADS-B (ESMN)
08:13AM 56.4937 14.1979 269° West 476 548 34,000  Level FlightAware ADS-B (ESMN)
08:14AM 56.4924 14.0653 269° West 474 545 34,000  Level FlightAware ADS-B (ESMN)
08:14AM 56.4903 13.8993 269° West 473 544 34,000  Level FlightAware ADS-B (ESMN)
08:15AM 56.4879 13.7196 269° West 470 541 34,000  Level FlightAware ADS-B (ESMN)
08:16AM 56.4860 13.5884 268° West 470 541 34,000  Level FlightAware ADS-B (ESMN)
08:16AM 56.4849 13.5190 269° West 470 541 34,000  Level FlightAware ADS-B (EFMA / MHQ)
08:16AM 56.4835 13.4298 268° West 468 539 34,000  Level FlightAware ADS-B (ESMN)
08:17AM 56.4804 13.2505 268° West 466 536 34,000  Level FlightAware ADS-B (EFMA / MHQ)
08:18AM 56.4784 13.1427 268° West 466 536 34,000  Level FlightAware ADS-B (ESMN)
08:18AM 56.4759 13.0191 268° West 467 537 34,000  Level FlightAware ADS-B (EFMA / MHQ)
08:19AM 56.4738 12.9113 268° West 467 537 34,000  Level FlightAware ADS-B (ESMN)
08:19AM 56.4713 12.7934 268° West 466 536 34,000  Level FlightAware ADS-B (ESMN)
08:20AM 56.4682 12.6569 268° West 465 535 34,000  Level FlightAware ADS-B (ESMN)
08:20AM 56.4652 12.5272 268° West 463 533 34,000  Level FlightAware ADS-B (ESMN)
08:21AM 56.4622 12.4027 267° West 460 529 34,000  Level FlightAware ADS-B (ESMN)
08:21AM 56.4600 12.3184 268° West 454 522 34,000  Level FlightAware ADS-B (EFMA / MHQ)
08:22AM 56.4572 12.2106 267° West 453 521 34,000  Level FlightAware ADS-B (ESMN)
08:22AM 56.4542 12.0915 267° West 450 518 34,000  Level FlightAware ADS-B (ESMN)
08:22AM 56.4527 12.0388 268° West 448 516 34,000  Level FlightAware ADS-B (EFMA / MHQ)
08:23AM 56.4498 11.9371 267° West 448 516 34,000  Level FlightAware ADS-B (ESMN)
08:23AM 56.4481 11.8769 268° West 446 513 34,000  Level FlightAware ADS-B (EFMA / MHQ)
08:23AM 56.4472 11.8436 268° West 446 513 34,000  Level FlightAware ADS-B (EFMA / MHQ)
08:24AM 56.4439 11.7334 267° West 447 514 34,000  Level FlightAware ADS-B (ESMN)
08:24AM 56.4404 11.6226 267° West 445 512 34,000  Level FlightAware ADS-B (ESMN)
08:25AM 56.4368 11.5086 267° West 444 511 34,000  Level FlightAware ADS-B (ESMN)
08:25AM 56.4326 11.3803 267° West 445 512 34,000  Level FlightAware ADS-B (ESMN)
08:26AM 56.4289 11.2697 267° West 446 513 34,000  Level FlightAware ADS-B (ESMN)
08:26AM 56.4245 11.1414 266° West 448 516 34,000  Level FlightAware ADS-B (ESMN)
08:27AM 56.4206 11.0301 266° West 449 517 34,000  Level FlightAware ADS-B (ESMN)
08:27AM 56.4163 10.9142 266° West 449 517 34,000  Level FlightAware ADS-B (ESMN)
08:28AM 56.4121 10.8045 266° West 448 516 34,000  Level FlightAware ADS-B (ESMN)
08:29AM 56.4056 10.6340 266° West 448 516 34,000  Level FlightAware ADS-B (ESMN)
08:29AM 56.4012 10.5211 266° West 448 516 34,000  Level FlightAware ADS-B (ESMN)
08:30AM 56.3943 10.3509 266° West 452 520 34,000  Level FlightAware ADS-B (ESMN)
08:31AM 56.3888 10.2205 266° West 455 524 34,000  Level FlightAware ADS-B (ESMN)
08:31AM 56.3827 10.0788 266° West 456 525 34,000  Level FlightAware ADS-B (ESMN)
08:32AM 56.3693 9.7821 265° West 456 525 34,000  Level FlightAware ADS-B (ESMN)
08:33AM 56.3585 9.5499 265° West 458 527 34,000  Level FlightAware ADS-B (ESMN)
08:35AM 56.3486 9.3486 265° West 459 528 34,000  Level FlightAware ADS-B (ESMN)
08:35AM 56.3387 9.1509 265° West 460 529 34,000  Level FlightAware ADS-B (ESMN)
08:36AM 56.3324 9.0288 265° West 457 526 34,000  Level FlightAware ADS-B (ESMN)
08:37AM 56.3231 8.8564 264° West 453 521 34,000 240 Level FlightAware ADS-B (ESMN)
08:37AM 56.3139 8.6869 265° West 457 526 34,400 660 Climbing FlightAware ADS-B (ESMN)
08:38AM 56.3058 8.5417 264° West 457 526 35,000 840 Climbing FlightAware ADS-B (ESMN)
08:39AM 56.2951 8.3547 264° West 455 524 35,600 60 Climbing FlightAware ADS-B (ESMN)
08:51AM 56.1130 5.6665 282° West 459 528 36,000  Climbing FlightAware UK
08:51AM 56.1008 5.5394 260° West 452 520 36,000  Level FlightAware UK
08:52AM 56.0914 5.4304 261° West 417 480 36,000  Level FlightAware UK
08:53AM 56.0784 5.2784 261° West 459 528 36,000  Level FlightAware UK
08:55AM 56.0287 4.7063 261° West 452 520 36,000  Level FlightAware UK
08:57AM 55.9929 4.3076 261° West 452 520 36,000  Level FlightAware UK
08:58AM 55.9768 4.1315 261° West 450 518 36,000  Level FlightAware UK
08:59AM 55.9498 3.8478 260° West 450 518 36,000  Level FlightAware UK
09:00AM 55.9370 3.7170 260° West 450 518 36,000  Level FlightAware UK
09:00AM 55.9262 3.6080 260° West 450 518 36,000  Level FlightAware UK
09:01AM 55.9116 3.4332 262° West 444 511 36,000  Level FlightAware UK
09:02AM 55.9115 3.3024 270° West 442 509 36,000  Level FlightAware UK
09:02AM 55.9087 3.1937 267° West 442 509 36,000  Level FlightAware UK
09:03AM 55.9047 3.0412 267° West 442 509 36,000  Level FlightAware UK
09:03AM 55.9013 2.9109 267° West 442 509 36,000  Level FlightAware UK
09:04AM 55.9004 2.8730 268° West 442 509 36,000  Level FlightAware ADS-B (EGPD / ABZ)
09:04AM 55.8979 2.7811 267° West 440 506 36,000  Level FlightAware UK
09:05AM 55.8943 2.6509 267° West 442 509 36,000  Level FlightAware UK
09:05AM 55.8911 2.5421 267° West 442 509 36,000  Level FlightAware UK
09:06AM 55.8877 2.4332 267° West 442 509 36,000  Level FlightAware UK
09:06AM 55.8871 2.3016 268° West 438 504 36,000  Level FlightAware UK
09:07AM 55.8905 2.1727 273° West 438 504 36,000  Level FlightAware UK
09:07AM 55.8935 2.0227 272° West 436 502 36,000  Level FlightAware UK
09:08AM 55.8951 1.9543 272° West 437 503 36,000  Level FlightAware ADS-B (EGNT / NCL)
09:09AM 55.8981 1.7864 272° West 436 502 36,000  Level FlightAware UK
09:09AM 55.9011 1.6301 271° West 436 502 36,000  Level FlightAware ADS-B (EGPD / ABZ)
09:10AM 55.9035 1.4890 272° West 435 501 36,000  Level FlightAware ADS-B (EGNT / NCL)
09:10AM 55.9043 1.4380 272° West 435 501 36,000  Level FlightAware ADS-B (EGNT / NCL)
09:11AM 55.9066 1.2731 272° West 434 499 36,000  Level FlightAware UK
09:11AM 55.9081 1.1774 272° West 434 499 36,000  Level FlightAware ADS-B (EGNT / NCL)
09:12AM 55.9099 1.0390 271° West 434 499 36,000  Level FlightAware ADS-B (EGNT / NCL)
09:13AM 55.9114 0.9106 271° West 432 497 36,000  Level FlightAware UK
09:13AM 55.9117 0.8873 271° West 433 498 36,000  Level FlightAware ADS-B (EGNT / NCL)
09:13AM 55.9131 0.7545 271° West 433 498 36,000  Level FlightAware ADS-B (EGNT / NCL)
09:14AM 55.9145 0.6107 271° West 434 499 36,000  Level FlightAware ADS-B (EGNT / NCL)
09:15AM 55.9156 0.4783 271° West 434 499 36,000  Level FlightAware ADS-B (EGNT / NCL)
09:15AM 55.9165 0.3710 271° West 435 501 36,000  Level FlightAware ADS-B (EGNT / NCL)
09:16AM 55.9172 0.2587 271° West 436 502 36,000  Level FlightAware ADS-B (EGNT / NCL)
09:16AM 55.9179 0.1447 271° West 437 503 36,000  Level FlightAware ADS-B (EGNT / NCL)
09:17AM 55.9182 0.0810 271° West 438 504 36,000  Level FlightAware ADS-B
09:17AM 55.9187 -0.0359 270° West 439 505 36,000  Level FlightAware ADS-B (EGNT / NCL)
09:18AM 55.9190 -0.1383 270° West 440 506 36,000  Level FlightAware ADS-B (EGNT / NCL)
09:18AM 55.9193 -0.2578 270° West 440 506 36,000  Level FlightAware ADS-B (EGPH / EDI)
09:19AM 55.9195 -0.3903 270° West 439 505 36,000  Level FlightAware ADS-B (EGPD / ABZ)
09:19AM 55.9195 -0.5119 270° West 439 505 36,000  Level FlightAware ADS-B
09:20AM 55.9195 -0.6208 270° West 438 504 36,000  Level FlightAware ADS-B
09:21AM 55.9192 -0.7779 270° West 437 503 36,000  Level FlightAware ADS-B (EGNT / NCL)
09:21AM 55.9188 -0.8981 270° West 436 502 36,000  Level FlightAware ADS-B (EGPH / EDI)
09:21AM 55.9183 -0.9692 267° West 438 504 36,000  Level FlightAware ADS-B
09:22AM 55.9127 -1.0293 255° West 444 511 36,000  Level FlightAware ADS-B (EGPF / GLA)
09:22AM 55.9099 -1.0456 253° West 446 513 36,000  Level FlightAware ADS-B
09:22AM 55.9034 -1.0749 249° West 446 513 36,000  Level FlightAware ADS-B (EGPK / PIK)
09:22AM 55.8778 -1.1853 248° West 450 518 36,000  Level FlightAware ADS-B (EGAA / BFS)
09:23AM 55.8527 -1.2938 248° West 450 518 36,000  Level FlightAware ADS-B (EGGP / LPL)
09:24AM 55.8103 -1.4766 248° West 450 518 36,000  Level FlightAware ADS-B (EGPG)
09:24AM 55.8047 -1.5005 248° West 446 513 36,000  Level FlightAware ADS-B
09:25AM 55.7744 -1.6297 247° West 451 519 36,000  Level FlightAware ADS-B (EGPF / GLA)
09:25AM 55.7623 -1.6812 247° West 451 519 36,000  Level FlightAware ADS-B (EGPF / GLA)
09:25AM 55.7560 -1.7080 248° West 448 516 36,000  Level FlightAware ADS-B (EGPK / PIK)
09:25AM 55.7395 -1.7785 248° West 447 514 36,000  Level FlightAware ADS-B
09:26AM 55.7295 -1.8211 248° West 447 514 36,000  Level FlightAware ADS-B (EGPK / PIK)
09:26AM 55.7135 -1.8890 248° West 447 514 36,000  Level FlightAware ADS-B (EGPK / PIK)
09:26AM 55.6946 -1.9693 247° West 450 518 36,000  Level FlightAware ADS-B (EGNT / NCL)
09:27AM 55.6720 -2.0648 247° West 451 519 36,000  Level FlightAware ADS-B (EGPH / EDI)
09:27AM 55.6420 -2.1901 247° West 453 521 36,000  Level FlightAware ADS-B (EGPG)
09:28AM 55.6160 -2.2989 247° West 453 521 36,000  Level FlightAware ADS-B (EGNT / NCL)
09:28AM 55.5906 -2.4039 247° West 453 521 36,000  Level FlightAware ADS-B (EGAA / BFS)
09:29AM 55.5668 -2.5021 247° West 452 520 36,000  Level FlightAware ADS-B (EGPH / EDI)
09:29AM 55.5414 -2.6065 247° West 451 519 36,000  Level FlightAware ADS-B (EGAA / BFS)
09:30AM 55.5146 -2.7162 247° West 450 518 36,000  Level FlightAware ADS-B (EGPG)
09:30AM 55.4884 -2.8227 247° West 449 517 36,000  Level FlightAware ADS-B (EGPG)
09:31AM 55.4636 -2.9231 247° West 448 516 36,000  Level FlightAware ADS-B (EGNT / NCL)
09:31AM 55.4609 -2.9338 247° West 448 516 36,000  Level FlightAware ADS-B (EGGP / LPL)
09:32AM 55.4379 -3.0267 246° West 448 516 36,000  Level FlightAware ADS-B (EGAA / BFS)
09:32AM 55.4094 -3.1411 246° West 448 516 36,000  Level FlightAware ADS-B (EGPF / GLA)
09:33AM 55.3800 -3.2581 246° West 448 516 36,000  Level FlightAware ADS-B (EGPH / EDI)
09:33AM 55.3524 -3.3680 246° West 449 517 36,000  Level FlightAware ADS-B (EGPG)
09:34AM 55.3264 -3.4704 246° West 448 516 36,000  Level FlightAware ADS-B (EGGP / LPL)
09:34AM 55.3070 -3.5466 247° West 445 512 36,000  Level FlightAware ADS-B (EGPK / PIK)
09:34AM 55.2923 -3.6046 246° West 447 514 36,000  Level FlightAware ADS-B (EGAE / LDY)
09:35AM 55.2657 -3.7084 246° West 445 512 36,000  Level FlightAware ADS-B (EGPF / GLA)
09:35AM 55.2479 -3.7775 247° West 441 507 36,000  Level FlightAware ADS-B (EGPK / PIK)
09:35AM 55.2395 -3.8103 247° West 440 506 36,000  Level FlightAware ADS-B (EGNR / CEG)
09:36AM 55.2129 -3.9132 246° West 443 510 36,000  Level FlightAware ADS-B (EGPG)
09:36AM 55.1868 -4.0137 247° West 439 505 36,000  Level FlightAware ADS-B (EGPK / PIK)
09:37AM 55.1809 -4.0366 247° West 439 505 36,000  Level FlightAware ADS-B (EGNR / CEG)
09:37AM 55.1503 -4.1537 246° West 444 511 36,000  Level FlightAware ADS-B (EGAA / BFS)
09:37AM 55.1474 -4.1649 246° West 444 511 36,000  Level FlightAware ADS-B (EGPN / DND)
09:37AM 55.1409 -4.1898 246° West 441 507 36,000  Level FlightAware ADS-B (EGNR / CEG)
09:37AM 55.1367 -4.2058 245° Southwest 444 511 36,000  Level FlightAware ADS-B (EGNC / CAX)
09:38AM 55.1108 -4.3046 246° West 442 509 36,000  Level FlightAware ADS-B (EGPK / PIK)
09:39AM 55.0823 -4.4124 245° Southwest 448 516 36,000  Level FlightAware ADS-B (EGPF / GLA)
09:39AM 55.0666 -4.4718 246° West 445 512 36,000  Level FlightAware ADS-B (EGAE / LDY)
09:39AM 55.0501 -4.5338 246° West 445 512 36,000  Level FlightAware ADS-B (EGPF / GLA)
09:40AM 55.0290 -4.6127 246° West 446 513 36,000  Level FlightAware ADS-B (EGPK / PIK)
09:40AM 55.0096 -4.6853 246° West 446 513 36,000  Level FlightAware ADS-B (EGPF / GLA)
09:40AM 54.9864 -4.7718 245° Southwest 451 519 36,000  Level FlightAware ADS-B (EGPN / DND)
09:41AM 54.9568 -4.8819 245° Southwest 449 517 36,000  Level FlightAware ADS-B (EGPF / GLA)
09:41AM 54.9284 -4.9866 245° Southwest 449 517 36,000  Level FlightAware ADS-B (EGAA / BFS)
09:42AM 54.8988 -5.0952 245° Southwest 448 516 36,000  Level FlightAware ADS-B (EGAA / BFS)
09:43AM 54.8722 -5.1927 245° Southwest 448 516 36,000  Level FlightAware ADS-B (EGPF / GLA)
09:43AM 54.8608 -5.2341 244° Southwest 449 517 36,000  Level FlightAware ADS-B (EGAA / BFS)
09:44AM 54.8089 -5.4225 244° Southwest 448 516 36,000  Level FlightAware UK
09:44AM 54.8051 -5.4365 244° Southwest 448 516 36,000  Level FlightAware ADS-B (EGPF / GLA)
09:44AM 54.7758 -5.5419 244° Southwest 446 513 36,000  Level FlightAware ADS-B (EGAA / BFS)
09:45AM 54.7415 -5.6614 242° Southwest 441 507 36,000  Level FlightAware ADS-B (EGPF / GLA)
09:45AM 54.7376 -5.6732 241° Southwest 441 507 36,000  Level FlightAware ADS-B (EGPK / PIK)
09:46AM 54.7031 -5.7740 239° Southwest 444 511 36,000  Level FlightAware ADS-B (EGPF / GLA)
09:46AM 54.6709 -5.8689 240° Southwest 443 510 36,000  Level FlightAware ADS-B (EGAA / BFS)
09:46AM 54.6565 -5.9119 240° Southwest 443 510 36,000  Level FlightAware ADS-B (EGAA / BFS)
09:47AM 54.6418 -5.9557 241° Southwest 440 506 36,000  Level FlightAware ADS-B (EGPK / PIK)
09:47AM 54.6207 -6.0187 241° Southwest 440 506 36,000  Level FlightAware ADS-B (EGPK / PIK)
09:47AM 54.5885 -6.1145 240° Southwest 445 512 36,000  Level FlightAware ADS-B (EGAA / BFS)
09:48AM 54.5529 -6.2200 240° Southwest 445 512 36,000  Level FlightAware ADS-B (EGAA / BFS)
09:49AM 54.5197 -6.3182 240° Southwest 445 512 36,000  Level FlightAware ADS-B (EGPG)
09:49AM 54.4864 -6.4163 240° Southwest 444 511 36,000  Level FlightAware ADS-B (EGAA / BFS)
09:50AM 54.4542 -6.5107 240° Southwest 444 511 36,000  Level FlightAware ADS-B (EGAA / BFS)
09:50AM 54.4123 -6.6327 240° Southwest 443 510 36,000  Level FlightAware ADS-B (EGPF / GLA)
09:51AM 54.3782 -6.7319 239° Southwest 443 510 36,000  Level FlightAware ADS-B (EGAE / LDY)
09:51AM 54.3376 -6.8493 239° Southwest 442 509 36,000  Level FlightAware ADS-B (EGAA / BFS)
09:52AM 54.3065 -6.9388 239° Southwest 441 507 36,000  Level FlightAware ADS-B (EIDW / DUB)
09:52AM 54.2733 -7.0344 239° Southwest 441 507 36,000  Level FlightAware ADS-B (EGAA / BFS)
09:53AM 54.2419 -7.1240 239° Southwest 440 506 36,000  Level FlightAware ADS-B (EIDW / DUB)
09:53AM 54.2110 -7.2122 239° Southwest 441 507 36,000  Level FlightAware ADS-B (EGAA / BFS)
09:54AM 54.1781 -7.3054 239° Southwest 440 506 36,000  Level FlightAware ADS-B (EGPK / PIK)
09:55AM 54.1437 -7.4027 239° Southwest 441 507 36,000  Level FlightAware ADS-B (EGAA / BFS)
09:55AM 54.1090 -7.5004 239° Southwest 440 506 36,000  Level FlightAware ADS-B (EGAE / LDY)
09:56AM 54.0776 -7.5883 239° Southwest 439 505 36,000  Level FlightAware ADS-B (EGPF / GLA)
09:56AM 54.0363 -7.7038 239° Southwest 439 505 36,000  Level FlightAware ADS-B (EGPF / GLA)
09:57AM 54.0048 -7.7914 239° Southwest 439 505 36,000  Level FlightAware ADS-B (EICK / ORK)
09:57AM 53.9719 -7.8828 238° Southwest 439 505 36,000  Level FlightAware ADS-B (EGPF / GLA)
09:58AM 53.9310 -7.9957 238° Southwest 439 505 36,000  Level FlightAware ADS-B (EGAA / BFS)
09:58AM 53.8993 -8.0829 238° Southwest 438 504 36,000  Level FlightAware ADS-B (EICK / ORK)
09:59AM 53.8784 -8.1401 239° Southwest 435 501 36,000  Level FlightAware ADS-B (EGPK / PIK)
09:59AM 53.8575 -8.1970 239° Southwest 434 499 36,000  Level FlightAware ADS-B (EGPK / PIK)
09:59AM 53.8353 -8.2577 238° Southwest 438 504 36,000  Level FlightAware ADS-B (EICK / ORK)
10:00AM 53.8103 -8.3258 238° Southwest 437 503 36,000  Level FlightAware ADS-B (EGAA / BFS)
10:00AM 53.7796 -8.4091 238° Southwest 437 503 36,000  Level FlightAware ADS-B (EGAA / BFS)
10:01AM 53.7469 -8.4978 238° Southwest 436 502 36,000  Level FlightAware ADS-B (EICK / ORK)
10:01AM 53.7038 -8.6138 238° Southwest 437 503 36,000  Level FlightAware ADS-B (EICK / ORK)
10:02AM 53.6974 -8.6310 239° Southwest 433 498 36,000  Level FlightAware ADS-B (EGPK / PIK)
10:02AM 53.6601 -8.7309 238° Southwest 437 503 36,000  Level FlightAware ADS-B (EICK / ORK)
10:03AM 53.6256 -8.8237 238° Southwest 436 502 36,000  Level FlightAware UK
10:03AM 53.6197 -8.8387 238° Southwest 438 504 36,000  Level FlightAware ADS-B (EICK / ORK)
10:03AM 53.5932 -8.9091 239° Southwest 434 499 36,000  Level FlightAware ADS-B (EGAE / LDY)
10:04AM 53.5722 -8.9648 239° Southwest 434 499 36,000  Level FlightAware ADS-B (EGAE / LDY)
10:04AM 53.5410 -9.0473 238° Southwest 438 504 36,000  Level FlightAware ADS-B (EICK / ORK)
10:05AM 53.5076 -9.1355 238° Southwest 439 505 36,000  Level FlightAware ADS-B (EICK / ORK)
10:05AM 53.4691 -9.2365 238° Southwest 434 499 36,000  Level FlightAware ADS-B (EGPK / PIK)
10:06AM 53.4319 -9.3338 237° Southwest 437 503 36,000  Level FlightAware ADS-B (EICK / ORK)
10:06AM 53.3877 -9.4489 237° Southwest 436 502 36,000  Level FlightAware ADS-B (EICK / ORK)
10:07AM 53.3551 -9.5335 237° Southwest 437 503 36,000  Level FlightAware ADS-B (EICK / ORK)
10:08AM 53.3112 -9.6467 237° Southwest 436 502 36,000  Level FlightAware ADS-B (EICK / ORK)
10:08AM 53.2786 -9.7309 237° Southwest 435 501 36,000  Level FlightAware ADS-B (EICK / ORK)
10:09AM 53.2358 -9.8405 237° Southwest 436 502 36,000  Level FlightAware ADS-B (EICK / ORK)
10:09AM 53.2021 -9.9265 237° Southwest 435 501 36,000  Level FlightAware ADS-B (EICK / ORK)
10:10AM 53.1688 -10.0113 237° Southwest 436 502 36,000  Level FlightAware ADS-B (EICK / ORK)
10:10AM 53.1364 -10.0936 237° Southwest 437 503 36,000  Level FlightAware ADS-B (EICK / ORK)
10:11AM 53.0912 -10.2077 237° Southwest 437 503 36,000  Level FlightAware ADS-B (EICK / ORK)
10:12AM 53.0429 -10.3293 237° Southwest 437 503 36,000  Level FlightAware ADS-B (EICK / ORK)
10:12AM 53.0099 -10.4121 236° Southwest 436 502 36,000  Level FlightAware ADS-B (EICK / ORK)
10:13AM 52.9667 -10.5196 237° Southwest 434 499 36,000  Level FlightAware ADS-B (EICK / ORK)
10:13AM 52.9223 -10.6300 236° Southwest 432 497 36,000  Level FlightAware ADS-B (EICK / ORK)
10:14AM 52.8881 -10.7147 236° Southwest 431 496 36,000  Level FlightAware ADS-B (EICK / ORK)
10:14AM 52.8544 -10.7979 236° Southwest 431 496 36,000  Level FlightAware ADS-B (EICK / ORK)
10:15AM 52.8224 -10.8764 236° Southwest 431 496 36,000  Level FlightAware ADS-B (EICK / ORK)
10:15AM 52.7893 -10.9577 236° Southwest 431 496 36,000  Level FlightAware ADS-B (EICK / ORK)
10:16AM 52.7560 -11.0390 236° Southwest 431 496 36,000  Level FlightAware ADS-B (EICK / ORK)
10:16AM 52.7232 -11.1189 236° Southwest 431 496 36,000  Level FlightAware ADS-B (EICK / ORK)
10:17AM 52.6868 -11.2074 236° Southwest 431 496 36,000  Level FlightAware ADS-B (EICK / ORK)
10:17AM 52.6541 -11.2864 236° Southwest 432 497 36,000  Level FlightAware ADS-B (EICK / ORK)
10:18AM 52.6105 -11.3914 236° Southwest 432 497 36,000  Level FlightAware ADS-B (EICK / ORK)
10:19AM 52.5711 -11.4861 236° Southwest 432 497 36,000 -120 Level FlightAware ADS-B (EICK / ORK)
11:12AM 49.0000 -20.0000 243° Southwest 490 564 31,000 -120 Descending ETMS Enhanced Traffic Management System
11:13AM 52.0680 -22.2416 262° West  Level Estimated
11:14AM 52.0495 -22.4382 261° West  Level Estimated
11:15AM 52.0307 -22.6346 261° West  Level Estimated
11:16AM 52.0115 -22.8308 261° West  Level Estimated
11:17AM 51.9920 -23.0268 261° West  Level Estimated
11:18AM 48.5651 -21.2872 242° Southwest 490 564 31,000  Level FlightAware Transoceanic
11:19AM 48.5019 -21.4692 242° Southwest 490 564 31,000  Level FlightAware Transoceanic
11:20AM 48.4383 -21.6508 242° Southwest 490 564 31,000  Level FlightAware Transoceanic
11:21AM 48.3744 -21.8320 242° Southwest 490 564 31,000  Level FlightAware Transoceanic
11:22AM 48.3103 -22.0127 242° Southwest 490 564 31,000  Level FlightAware Transoceanic
11:23AM 48.2459 -22.1929 242° Southwest 490 564 31,000  Level FlightAware Transoceanic
11:24AM 48.1812 -22.3727 242° Southwest 490 564 31,000  Level FlightAware Transoceanic
11:25AM 48.1162 -22.5520 241° Southwest 490 564 31,000  Level FlightAware Transoceanic
11:26AM 48.0509 -22.7309 241° Southwest 490 564 31,000  Level FlightAware Transoceanic
11:27AM 47.9854 -22.9093 241° Southwest 490 564 31,000  Level FlightAware Transoceanic
11:28AM 47.9196 -23.0873 241° Southwest 490 564 31,000  Level FlightAware Transoceanic
11:29AM 47.8535 -23.2648 241° Southwest 490 564 31,000  Level FlightAware Transoceanic
11:30AM 47.7871 -23.4419 241° Southwest 490 564 31,000  Level FlightAware Transoceanic
11:31AM 47.7205 -23.6185 241° Southwest 490 564 31,000  Level FlightAware Transoceanic
11:32AM 47.6536 -23.7947 241° Southwest 490 564 31,000  Level FlightAware Transoceanic
11:33AM 47.5864 -23.9704 240° Southwest 490 564 31,000  Level FlightAware Transoceanic
11:34AM 47.5190 -24.1456 240° Southwest 490 564 31,000  Level FlightAware Transoceanic
11:35AM 47.4513 -24.3204 240° Southwest 490 564 31,000  Level FlightAware Transoceanic
11:36AM 47.3833 -24.4948 240° Southwest 490 564 31,000  Level FlightAware Transoceanic
11:37AM 47.3151 -24.6687 240° Southwest 490 564 31,000  Level FlightAware Transoceanic
11:38AM 47.2466 -24.8421 240° Southwest 490 564 31,000  Level FlightAware Transoceanic
11:39AM 47.1778 -25.0152 240° Southwest 490 564 31,000  Level FlightAware Transoceanic
11:40AM 47.1088 -25.1877 239° Southwest 490 564 31,000  Level FlightAware Transoceanic
11:41AM 47.0395 -25.3598 239° Southwest 490 564 31,000  Level FlightAware Transoceanic
11:42AM 46.9700 -25.5315 239° Southwest 490 564 31,000  Level FlightAware Transoceanic
11:43AM 46.9002 -25.7027 239° Southwest 490 564 31,000  Level FlightAware Transoceanic
11:44AM 46.8302 -25.8735 239° Southwest 490 564 31,000  Level FlightAware Transoceanic
11:45AM 46.7598 -26.0438 239° Southwest 490 564 31,000  Level FlightAware Transoceanic
11:46AM 46.6893 -26.2137 239° Southwest 490 564 31,000  Level FlightAware Transoceanic
11:47AM 46.6185 -26.3831 239° Southwest 490 564 31,000  Level FlightAware Transoceanic
11:48AM 46.5475 -26.5521 238° Southwest 490 564 31,000  Level FlightAware Transoceanic
11:49AM 46.4762 -26.7207 238° Southwest 490 564 31,000  Level FlightAware Transoceanic
11:50AM 46.4046 -26.8888 238° Southwest 490 564 31,000  Level FlightAware Transoceanic
11:51AM 46.3328 -27.0564 238° Southwest 490 564 31,000  Level FlightAware Transoceanic
11:52AM 46.2608 -27.2237 238° Southwest 490 564 31,000  Level FlightAware Transoceanic
11:53AM 46.1885 -27.3905 238° Southwest 490 564 31,000  Level FlightAware Transoceanic
11:54AM 46.1160 -27.5568 238° Southwest 490 564 31,000  Level FlightAware Transoceanic
11:55AM 46.0432 -27.7227 238° Southwest 490 564 31,000  Level FlightAware Transoceanic
11:56AM 45.9702 -27.8882 238° Southwest 490 564 31,000  Level FlightAware Transoceanic
11:57AM 45.8970 -28.0532 237° Southwest 490 564 31,000  Level FlightAware Transoceanic
11:58AM 45.8235 -28.2178 237° Southwest 490 564 31,000  Level FlightAware Transoceanic
11:59AM 45.7498 -28.3820 237° Southwest 490 564 31,000  Level FlightAware Transoceanic
12:00PM 45.6759 -28.5457 237° Southwest 490 564 31,000  Level FlightAware Transoceanic
12:01PM 45.6017 -28.7090 237° Southwest 490 564 31,000  Level FlightAware Transoceanic
12:02PM 45.5273 -28.8719 237° Southwest 490 564 31,000  Level FlightAware Transoceanic
12:03PM 45.4526 -29.0344 237° Southwest 490 564 31,000  Level FlightAware Transoceanic
12:04PM 45.3778 -29.1964 237° Southwest 490 564 31,000  Level FlightAware Transoceanic
12:05PM 45.3027 -29.3580 236° Southwest 490 564 31,000  Level FlightAware Transoceanic
12:06PM 45.2273 -29.5191 236° Southwest 490 564 31,000  Level FlightAware Transoceanic
12:07PM 45.1518 -29.6798 236° Southwest 490 564 31,000  Level FlightAware Transoceanic
12:08PM 45.0760 -29.8401 236° Southwest 490 564 31,000  Level FlightAware Transoceanic
12:09PM 45.0560 -30.0109 261° West  Level Estimated
12:10PM 45.0358 -30.1815 261° West  Level Estimated
12:11PM 45.0153 -30.3521 260° West  Level Estimated
12:12PM 44.9945 -30.5225 260° West  Level Estimated
12:13PM 44.9735 -30.6927 260° West  Level Estimated
12:14PM 44.9523 -30.8629 260° West  Level Estimated
12:15PM 44.9307 -31.0329 260° West  Level Estimated
12:16PM 44.9090 -31.2028 260° West  Level Estimated
12:17PM 44.8870 -31.3726 260° West  Level Estimated
12:18PM 44.8647 -31.5422 260° West  Level Estimated
12:19PM 44.8422 -31.7117 259° West  Level Estimated
12:20PM 44.8194 -31.8811 259° West  Level Estimated
12:21PM 44.7964 -32.0503 259° West  Level Estimated
12:22PM 44.7731 -32.2194 259° West  Level Estimated
12:23PM 44.7496 -32.3884 259° West  Level Estimated
12:24PM 44.7258 -32.5572 259° West  Level Estimated
12:25PM 44.7018 -32.7259 259° West  Level Estimated
12:26PM 44.6776 -32.8944 259° West  Level Estimated
12:27PM 44.6530 -33.0628 258° West  Level Estimated
12:28PM 44.6283 -33.2311 258° West  Level Estimated
12:29PM 44.6033 -33.3992 258° West  Level Estimated
12:30PM 44.5780 -33.5672 258° West  Level Estimated
12:31PM 44.5525 -33.7350 258° West  Level Estimated
12:32PM 44.5268 -33.9027 258° West  Level Estimated
12:33PM 44.5008 -34.0702 258° West  Level Estimated
12:34PM 44.4746 -34.2376 258° West  Level Estimated
12:35PM 44.4481 -34.4048 258° West  Level Estimated
12:36PM 44.4214 -34.5719 257° West  Level Estimated
12:37PM 44.3944 -34.7388 257° West  Level Estimated
12:38PM 44.3672 -34.9056 257° West  Level Estimated
12:39PM 44.3398 -35.0722 257° West  Level Estimated
12:40PM 44.3121 -35.2386 257° West  Level Estimated
12:41PM 44.2841 -35.4049 257° West  Level Estimated
12:42PM 44.2560 -35.5711 257° West  Level Estimated
12:43PM 44.2276 -35.7370 257° West  Level Estimated
12:44PM 44.1989 -35.9029 257° West  Level Estimated
12:45PM 44.1700 -36.0685 256° West  Level Estimated
12:46PM 44.1409 -36.2340 256° West  Level Estimated
12:47PM 44.1115 -36.3993 256° West  Level Estimated
12:48PM 44.0819 -36.5645 256° West  Level Estimated
12:49PM 44.0520 -36.7295 256° West  Level Estimated
12:50PM 44.0220 -36.8943 256° West  Level Estimated
12:51PM 43.9916 -37.0590 256° West  Level Estimated
12:52PM 43.9611 -37.2235 256° West  Level Estimated
12:53PM 43.9303 -37.3878 255° West  Level Estimated
12:54PM 43.8993 -37.5520 255° West  Level Estimated
12:55PM 43.8680 -37.7160 255° West  Level Estimated
12:56PM 43.8365 -37.8798 255° West  Level Estimated
12:57PM 43.8048 -38.0434 255° West  Level Estimated
12:58PM 43.7728 -38.2069 255° West  Level Estimated
12:59PM 43.7406 -38.3702 255° West  Level Estimated
01:00PM 43.7082 -38.5333 255° West  Level Estimated
01:01PM 43.6755 -38.6962 255° West  Level Estimated
01:02PM 43.6426 -38.8590 254° West  Level Estimated
01:03PM 43.6095 -39.0215 254° West  Level Estimated
01:04PM 43.5761 -39.1839 254° West  Level Estimated
01:05PM 43.5426 -39.3461 254° West  Level Estimated
01:06PM 43.5088 -39.5082 254° West  Level Estimated
01:07PM 43.4747 -39.6700 254° West  Level Estimated
01:08PM 43.4404 -39.8317 254° West  Level Estimated
01:09PM 43.4059 -39.9932 254° West  Level Estimated
01:09PM 42.0000 -40.0000 252° West 488 562 33,000  Level New York Oceanic (ODAPS)
01:15PM 41.7167 -41.1500 251° West 484 557 33,000  Level New York Oceanic (ODAPS)
01:25PM 41.2667 -42.8167 250° West 480 552 33,000  Level New York Oceanic (ODAPS)
01:34PM 40.8167 -44.4333 249° West 479 551 33,000  Level New York Oceanic (ODAPS)
01:44PM 40.3333 -46.0333 248° West 485 558 33,000  Level New York Oceanic (ODAPS)
01:53PM 39.8333 -47.6000 247° West 478 550 33,000  Level New York Oceanic (ODAPS)
02:03PM 39.3167 -49.1167 245° Southwest 480 552 33,000  Level New York Oceanic (ODAPS)
02:09PM 39.0000 -50.0000 234° Southwest 486 559 33,000  Level New York Oceanic (ODAPS)
02:13PM 38.6833 -50.5500 234° Southwest 480 552 33,000  Level New York Oceanic (ODAPS)
02:22PM 37.9333 -51.8833 233° Southwest 479 551 33,000  Level New York Oceanic (ODAPS)
02:32PM 37.1500 -53.1667 233° Southwest 482 555 33,000  Level New York Oceanic (ODAPS)
02:41PM 36.3667 -54.4333 231° Southwest 480 552 33,000  Level New York Oceanic (ODAPS)
02:46PM 36.0000 -55.0000 245° Southwest 481 554 33,000  Level New York Oceanic (ODAPS)
02:51PM 35.7000 -55.8000 245° Southwest 480 552 33,000  Level New York Oceanic (ODAPS)
03:01PM 35.1500 -57.2000 244° Southwest 475 547 33,000  Level New York Oceanic (ODAPS)
03:10PM 34.6000 -58.5833 243° Southwest 476 548 33,000  Level New York Oceanic (ODAPS)
03:20PM 34.0167 -59.9500 248° West 364 419 33,000  Level New York Oceanic (ODAPS)
03:20PM 34.0000 -60.0000 252° West 477 549 33,000  Level New York Oceanic (ODAPS)
03:29PM 33.6031 -61.3961 242° Southwest 483 556 33,000  Level New York Center
03:30PM 33.5833 -61.4833 242° Southwest 477 549 33,000  Level FlightAware Transoceanic
03:30PM 33.5467 -61.5269 243° Southwest 504 580 33,000  Level New York Center
03:31PM 33.5222 -61.6235 242° Southwest 477 549 33,000  Level FlightAware Transoceanic
03:31PM 33.4800 -61.6911 244° Southwest 509 586 33,000  Level New York Center
03:32PM 33.4609 -61.7635 242° Southwest 477 549 33,000  Level FlightAware Transoceanic
03:32PM 33.4136 -61.8325 241° Southwest 504 580 33,000  Level New York Center
03:33PM 33.3994 -61.9034 242° Southwest 477 549 33,000  Level FlightAware Transoceanic
03:33PM 33.3550 -61.9656 242° Southwest 504 580 33,000  Level New York Center
03:34PM 33.3378 -62.0430 242° Southwest 477 549 33,000  Level FlightAware Transoceanic
03:34PM 33.2878 -62.1292 244° Southwest 504 580 33,000  Level New York Center
03:35PM 33.2250 -62.2719 242° Southwest 499 574 33,000  Level New York Center
03:36PM 33.1658 -62.4044 242° Southwest 499 574 33,000  Level New York Center
03:37PM 33.0911 -62.5603 240° Southwest 504 580 33,000  Level New York Center
03:38PM 33.0283 -62.7075 243° Southwest 504 580 33,000  Level New York Center
03:39PM 32.9681 -62.8344 241° Southwest 504 580 33,000  Level New York Center
03:40PM 32.9017 -62.9964 244° Southwest 504 580 33,000  Level New York Center
03:41PM 32.8414 -63.1256 241° Southwest 499 574 33,000  Level New York Center
03:42PM 32.7722 -63.2822 242° Southwest 499 574 33,000  Level New York Center
03:43PM 32.7083 -63.4258 242° Southwest 499 574 33,000  Level New York Center
03:44PM 32.6492 -63.5517 241° Southwest 499 574 33,000  Level New York Center
03:50PM 32.2909 -64.3284 242° Southwest 483 556 33,000  Level FlightAware ADS-B
03:50PM 32.2545 -64.4064 242° Southwest 484 557 33,000  Level FlightAware ADS-B
03:51PM 32.2221 -64.4875 246° West 482 555 33,000  Level FlightAware ADS-B
03:52PM 32.1745 -64.5818 239° Southwest 488 562 33,000  Level FlightAware ADS-B
03:53PM 32.0910 -64.7539 241° Southwest 483 556 33,000  Level FlightAware ADS-B
03:53PM 32.0483 -64.8441 241° Southwest 483 556 33,000  Level FlightAware ADS-B
03:54PM 32.0036 -64.9382 241° Southwest 483 556 33,000  Level FlightAware ADS-B
03:55PM 31.9641 -65.0212 241° Southwest 481 554 33,000  Level FlightAware ADS-B
03:55PM 31.9292 -65.0994 241° Southwest 493 567 33,000  Level New York Center
03:56PM 31.8725 -65.2228 242° Southwest 487 560 33,000  Level New York Center
03:57PM 31.7981 -65.3714 240° Southwest 487 560 33,000  Level New York Center
03:58PM 31.7353 -65.5069 241° Southwest 480 552 33,000  Level New York Center
03:59PM 31.6761 -65.6300 241° Southwest 487 560 33,000  Level New York Center
04:00PM 31.5992 -65.7781 239° Southwest 487 560 33,000  Level New York Center
04:01PM 31.5419 -65.9053 242° Southwest 487 560 33,000  Level New York Center
04:02PM 31.4686 -66.0503 239° Southwest 487 560 33,000  Level New York Center
04:03PM 31.4072 -66.1869 242° Southwest 481 554 33,000  Level New York Center
04:04PM 31.3472 -66.3067 240° Southwest 481 554 33,000  Level New York Center
04:05PM 31.2692 -66.4511 238° Southwest 486 559 33,000  Level New York Center
04:06PM 31.2056 -66.5900 242° Southwest 486 559 33,000  Level New York Center
04:07PM 31.1428 -66.7067 238° Southwest 486 559 33,000  Level New York Center
04:08PM 31.0686 -66.8550 240° Southwest 483 556 33,000  Level New York Center
04:09PM 31.0067 -66.9956 243° Southwest 483 556 33,000  Level New York Center
04:10PM 30.9394 -67.1119 236° Southwest 483 556 33,000  Level New York Center
04:11PM 30.8647 -67.2597 240° Southwest 488 562 33,000  Level New York Center
04:12PM 30.7958 -67.3928 239° Southwest 493 567 33,000  Level New York Center
04:27PM 29.8000 -69.3000 238° Southwest 462 532 33,000  Level New York Oceanic (ODAPS)
04:37PM 29.1667 -70.5000 237° Southwest 448 516 33,000  Level New York Oceanic (ODAPS)
04:41PM 28.8833 -71.0000 237° Southwest 457 526 33,000  Level New York Oceanic (ODAPS)
04:46PM 28.4833 -71.6500 237° Southwest 431 496 33,000  Level New York Oceanic (ODAPS)
04:49PM 28.3167 -71.9167 237° Southwest 450 518 33,000  Level New York Oceanic (ODAPS)
04:56PM 27.8167 -72.7833 237° Southwest 445 512 33,000  Level New York Oceanic (ODAPS)
05:05PM 27.1667 -73.8833 236° Southwest 433 498 33,000  Level New York Oceanic (ODAPS)
05:07PM 27.0394 -74.0853 236° Southwest 474 545 33,000  Level Miami Center
05:08PM 26.9865 -74.1842 236° Southwest 445 512 33,000  Level FlightAware Transoceanic
05:08PM 26.9664 -74.1919 232° Southwest 459 528 33,000  Level Miami Center
05:09PM 26.9167 -74.3000 237° Southwest 445 512 33,000  Level FlightAware Transoceanic
05:09PM 26.8975 -74.3053 236° Southwest 429 494 33,000  Level Miami Center
05:10PM 26.8487 -74.4156 237° Southwest 445 512 33,000  Level FlightAware Transoceanic
05:10PM 26.8389 -74.4253 241° Southwest 435 501 33,000  Level Miami Center
05:11PM 26.7807 -74.5311 237° Southwest 445 512 33,000  Level FlightAware Transoceanic
05:11PM 26.7719 -74.5361 236° Southwest 440 506 33,000  Level Miami Center
05:12PM 26.7656 -74.5567 237° Southwest 433 498 33,000  Level FlightAware Transoceanic
05:12PM 26.7067 -74.6467 237° Southwest 440 506 33,000  Level Miami Center
05:13PM 26.6899 -74.6849 236° Southwest 433 498 33,000  Level FlightAware Transoceanic
05:13PM 26.6458 -74.7642 240° Southwest 440 506 33,000  Level Miami Center
05:14PM 26.5889 -74.8861 242° Southwest 440 506 33,000  Level Miami Center
05:15PM 26.5236 -74.9986 237° Southwest 440 506 33,000  Level Miami Center
05:16PM 26.4708 -75.1200 244° Southwest 440 506 33,000  Level Miami Center
05:17PM 26.4075 -75.2347 238° Southwest 440 506 33,000  Level Miami Center
05:18PM 26.3417 -75.3447 236° Southwest 440 506 33,000  Level Miami Center
05:19PM 26.2844 -75.4636 242° Southwest 440 506 33,000  Level Miami Center
05:20PM 26.2250 -75.5822 241° Southwest 445 512 33,000 -120 Level Miami Center
05:21PM 26.1611 -75.6964 238° Southwest 445 512 32,800 -360 Descending Miami Center
05:22PM 26.0931 -75.8036 235° Southwest 445 512 32,300 -420 Descending Miami Center
05:23PM 26.0375 -75.9244 243° Southwest 440 506 32,000 -180 Descending Miami Center
05:24PM 25.9756 -76.0403 239° Southwest 435 501 32,000  Level Miami Center
05:25PM 25.9194 -76.1403 238° Southwest 435 501 32,000  Level Miami Center
05:26PM 25.8594 -76.2583 241° Southwest 435 501 32,000  Level Miami Center
05:27PM 25.7953 -76.3717 238° Southwest 440 506 32,000  Level Miami Center
05:28PM 25.7328 -76.4872 239° Southwest 440 506 32,000  Level Miami Center
05:29PM 25.6683 -76.6028 238° Southwest 440 506 32,000  Level Miami Center
05:30PM 25.6078 -76.7158 239° Southwest 440 506 32,000  Level Miami Center
05:31PM 25.5431 -76.8289 238° Southwest 440 506 32,000  Level Miami Center
05:32PM 25.4825 -76.9461 240° Southwest 440 506 32,000  Level Miami Center
05:33PM 25.4197 -77.0614 239° Southwest 440 506 32,000 -120 Level Miami Center
05:34PM 25.3589 -77.1739 239° Southwest 440 506 31,800 -420 Descending Miami Center
05:35PM 25.2939 -77.2886 238° Southwest 440 506 31,200 -420 Descending Miami Center
05:36PM 25.2350 -77.4033 240° Southwest 440 506 31,000 -120 Descending Miami Center
05:37PM 25.1675 -77.5317 240° Southwest 445 512 31,000  Level Miami Center
05:38PM 25.1000 -77.6506 238° Southwest 450 518 31,000  Level Miami Center
05:39PM 25.0347 -77.7603 237° Southwest 450 518 31,000  Level Miami Center
05:40PM 24.9714 -77.8744 239° Southwest 445 512 31,000  Level Miami Center
05:41PM 24.9097 -77.9883 239° Southwest 445 512 31,000  Level Miami Center
05:42PM 24.8419 -78.1000 236° Southwest 445 512 31,000  Level Miami Center
05:43PM 24.7783 -78.2139 238° Southwest 445 512 31,000  Level Miami Center
05:44PM 24.7167 -78.3322 240° Southwest 450 518 31,000  Level Miami Center
05:45PM 24.6528 -78.4411 237° Southwest 450 518 31,000  Level Miami Center
05:46PM 24.5869 -78.5544 237° Southwest 445 512 31,000  Level Miami Center
05:47PM 24.5269 -78.6703 240° Southwest 445 512 31,000  Level Miami Center
05:48PM 24.4650 -78.7881 240° Southwest 450 518 31,000  Level Miami Center
05:49PM 24.3967 -78.8964 235° Southwest 445 512 31,000  Level Miami Center
05:50PM 24.3386 -79.0028 239° Southwest 429 494 31,000  Level Miami Center
05:51PM 24.2744 -79.1019 235° Southwest 415 478 31,000  Level Miami Center
05:52PM 24.2186 -79.2081 240° Southwest 415 478 31,000  Level Miami Center
05:53PM 24.1564 -79.3069 235° Southwest 410 472 31,000  Level Miami Center
05:54PM 24.0961 -79.4128 238° Southwest 410 472 31,000  Level Miami Center
05:55PM 24.0400 -79.5142 239° Southwest 404 465 31,000  Level Miami Center
05:56PM 23.9961 -79.6269 247° West 404 465 31,000  Level Miami Center
05:57PM 23.9586 -79.7419 250° West 404 465 31,000  Level Miami Center
05:58PM 23.9164 -79.8614 249° West 412 474 31,000  Level Miami Center
05:59PM 23.8786 -79.9742 250° West 407 468 31,000  Level Miami Center
06:00PM 23.8386 -80.0911 250° West 407 468 31,000  Level Miami Center
06:02PM 23.7170 -80.2220 225° Southwest  Level FlightAware Approximate
06:09PM 23.2211 -81.0586 239° Southwest  Level FlightAware Approximate
06:10PM 23.1571 -81.1812 241° Southwest  Level FlightAware Approximate
06:11PM 23.0931 -81.3038 240° Southwest  Level FlightAware Approximate
06:12PM 23.0291 -81.4263 240° Southwest  Level FlightAware Approximate
06:13PM 23.0124 -81.5633 264° West  Level FlightAware Approximate
06:14PM 23.0000 -81.7034 270° West  Level FlightAware Approximate
06:15PM 23.0000 -81.8442 270° West  Level FlightAware Approximate
06:16PM 22.9953 -81.9848 264° West  Level FlightAware Approximate
06:17PM 22.9833 -82.1249 270° West  Level FlightAware Approximate
06:18PM 22.9833 -82.2657 270° West  Level FlightAware Approximate
06:19PM 22.9667 -82.4000 260° West  Level FlightAware Approximate
06:20PM 22.9891 -82.4091 260° West  Level Estimated
06:21PM 22.9891 -82.4091 260° West  Level Estimated
06:22PM 22.9891 -82.4091 260° West  Level Estimated
06:23PM 22.9891 -82.4091 260° West  Level Estimated
06:24PM 22.9891 -82.4091 260° West  Level Estimated
06:25PM 22.9891 -82.4091 260° West  Level Estimated
06:26PM 22.9891 -82.4091 260° West  Level Estimated
06:27PM 22.9891 -82.4091 260° West  Level Estimated
06:28PM 22.9891 -82.4091 260° West  Level Estimated
06:29PM 22.9891 -82.4091 260° West  Level Estimated
06:30PM 22.9891 -82.4091 260° West  Level Estimated
06:31PM 22.9891 -82.4091 260° West  Level Estimated
06:32PM 22.9891 -82.4091 260° West  Level Estimated
06:33PM 22.9891 -82.4091 260° West  Level Estimated
06:34PM 22.9891 -82.4091 260° West  Level Estimated
06:35PM 22.9891 -82.4091 260° West  Level Estimated
06:36PM 22.9891 -82.4091 260° West  Level Estimated
06:37PM 22.9891 -82.4091 260° West  Level Estimated
06:38PM 22.9891 -82.4091 260° West  Level Estimated
06:39PM 22.9891 -82.4091 260° West  Level Estimated
06:40PM 22.9891 -82.4091 260° West  Level Estimated
06:41PM 22.9891 -82.4091 260° West  Level Estimated
06:42PM 22.9891 -82.4091 260° West  Level Estimated
06:43PM 22.9891 -82.4091 260° West  Level Estimated